Terminal Aerodrome Forecast
Issued by NWS

Home | Current Version | Previous Version | Text Only | Print | Product List | Glossary On
Versions: 1 2 3 4 5 6 7 8 9 10 11 12 13 14 15 16 17 18 19 20 21 22 23 24 25 26 27 28 29 30 31 32 33 34
000
FTUS46 KSTO 161151
TAFMCC
TAF
KMCC 161151Z 1612/1712 15013G20KT 3SM -SHRA BR SCT020 OVC040
     FM161600 15015G20KT 6SM -SHRA BR OVC015
     FM162000 15022G27KT 5SM -RA BR OVC025
     FM170200 15032G44KT 4SM -RA BR OVC025 PROB30 1702/1708 2SM
      -TSRA BKN015CB
     FM170800 16022G30KT 3SM -RA BR OVC010=

USA.gov is the U.S. government's official web portal to all federal, state and local government web resources and services.